Time;durP1;ratioP1;P1;durP2;ratioP2;P2;SDS_P1;SDS_P2;PMS_P1;PMS_P2;Temp;Humidity;BMP_temperature;BMP_pressure;BME280_temperature;BME280_humidity;BME280_pressure;Samples;Min_cycle;Max_cycle;Signal;HPM_P1;HPM_P2
2022/05/01 00:01:27;;;;;;;0.60;0.10;;;10.70;1.00;;;;;;5084009;28;20471;-83
2022/05/01 00:03:55;;;;;;;0.60;0.10;;;10.70;1.00;;;;;;5092342;28;20468;-82
2022/05/01 00:06:23;;;;;;;0.60;0.30;;;10.80;1.00;;;;;;5090684;28;20516;-82
2022/05/01 00:08:52;;;;;;;0.60;0.20;;;10.70;1.00;;;;;;5091889;28;20445;-82
2022/05/01 00:11:20;;;;;;;0.60;0.10;;;10.70;1.00;;;;;;5090631;28;20430;-83
2022/05/01 00:13:48;;;;;;;0.80;0.60;;;10.70;1.00;;;;;;5084554;28;20465;-82
2022/05/01 00:16:16;;;;;;;0.70;0.60;;;10.70;1.00;;;;;;5078365;28;20801;-82
2022/05/01 00:18:44;;;;;;;0.60;0.10;;;10.70;1.00;;;;;;5079134;28;20453;-82
2022/05/01 00:21:12;;;;;;;0.60;0.10;;;10.70;1.00;;;;;;5079490;28;20453;-83
2022/05/01 00:23:40;;;;;;;0.60;0.20;;;10.70;1.00;;;;;;5084091;28;20477;-83
2022/05/01 00:26:11;;;;;;;0.97;0.87;;;10.80;1.00;;;;;;5082514;28;20442;-82
2022/05/01 00:28:40;;;;;;;0.60;0.23;;;10.70;1.00;;;;;;5083566;28;20546;-81
2022/05/01 00:31:08;;;;;;;0.60;0.10;;;10.70;1.00;;;;;;5083375;28;20437;-82
2022/05/01 00:36:27;;;;;;;0.60;0.10;;;10.70;1.00;;;;;;5079444;28;20477;-83
2022/05/01 00:38:56;;;;;;;0.60;0.10;;;10.70;1.00;;;;;;5079976;28;20445;-83
2022/05/01 00:41:27;;;;;;;0.60;0.10;;;10.70;1.00;;;;;;5078730;28;20507;-82
2022/05/01 00:44:03;;;;;;;7.13;4.20;;;10.70;1.00;;;;;;5078620;28;20445;-84
2022/05/01 00:46:32;;;;;;;0.70;0.40;;;10.70;1.00;;;;;;5078542;28;20464;-81
2022/05/01 00:49:02;;;;;;;0.83;0.33;;;10.70;1.00;;;;;;5074795;28;20583;-82
2022/05/01 00:51:31;;;;;;;0.70;0.30;;;10.70;1.00;;;;;;5087998;28;20509;-82
2022/05/01 00:54:00;;;;;;;0.70;0.40;;;10.70;1.00;;;;;;5095295;28;20433;-82
2022/05/01 00:56:30;;;;;;;0.60;0.20;;;10.70;1.00;;;;;;5090252;28;20572;-83
2022/05/01 00:58:59;;;;;;;1.60;1.50;;;10.60;1.00;;;;;;5085539;28;20465;-82
2022/05/01 01:01:26;;;;;;;0.60;0.10;;;10.60;1.00;;;;;;5078637;28;20456;-83
2022/05/01 01:03:55;;;;;;;0.70;0.30;;;10.60;1.00;;;;;;5068375;28;20473;-82
2022/05/01 01:06:24;;;;;;;0.90;0.37;;;10.60;1.00;;;;;;5080175;28;20475;-82
2022/05/01 01:08:52;;;;;;;0.60;0.10;;;10.60;1.00;;;;;;5081150;28;20442;-82
2022/05/01 01:11:20;;;;;;;0.60;0.20;;;10.60;1.00;;;;;;5078500;28;20532;-83
2022/05/01 01:13:51;;;;;;;1.03;0.57;;;10.60;1.00;;;;;;5078872;28;20444;-82
2022/05/01 01:16:20;;;;;;;3.80;2.57;;;10.60;1.00;;;;;;5080204;28;20473;-83
2022/05/01 01:18:48;;;;;;;0.60;0.10;;;10.60;1.00;;;;;;5093120;28;20472;-83
2022/05/01 01:21:18;;;;;;;0.60;0.10;;;10.60;1.00;;;;;;5091638;28;20441;-82
2022/05/01 01:23:46;;;;;;;0.60;0.20;;;10.60;1.00;;;;;;5090324;28;20528;-82
2022/05/01 01:26:15;;;;;;;0.60;0.20;;;10.60;1.00;;;;;;5078431;28;20816;-83
2022/05/01 01:28:43;;;;;;;0.60;0.10;;;10.60;1.00;;;;;;5079741;28;20472;-82
2022/05/01 01:33:59;;;;;;;0.70;0.53;;;10.60;1.00;;;;;;5073099;28;20507;-82
2022/05/01 01:36:30;;;;;;;0.60;0.10;;;10.60;1.00;;;;;;5083405;28;20525;-82
2022/05/01 01:38:58;;;;;;;0.83;0.57;;;10.60;1.00;;;;;;5095252;28;20465;-82
2022/05/01 01:41:28;;;;;;;0.60;0.20;;;10.60;1.00;;;;;;5093327;28;20916;-81
2022/05/01 01:43:56;;;;;;;1.30;1.20;;;10.60;1.00;;;;;;5082957;28;20442;-83
2022/05/01 01:46:25;;;;;;;0.60;0.20;;;10.60;1.00;;;;;;5082840;28;20478;-82
2022/05/01 01:48:53;;;;;;;0.60;0.20;;;10.60;1.00;;;;;;5088085;28;20457;-82
2022/05/01 01:51:22;;;;;;;0.60;0.10;;;10.60;1.00;;;;;;5096676;28;20493;-83
2022/05/01 01:53:52;;;;;;;0.60;0.10;;;10.60;1.00;;;;;;5096105;28;20504;-82
2022/05/01 01:56:20;;;;;;;0.73;0.73;;;10.60;1.00;;;;;;5087755;28;20488;-83
2022/05/01 01:58:48;;;;;;;0.60;0.10;;;10.50;1.00;;;;;;5091786;28;20508;-82
2022/05/01 02:01:16;;;;;;;0.60;0.30;;;10.60;1.00;;;;;;5096556;28;20437;-82
2022/05/01 02:03:44;;;;;;;0.90;0.20;;;10.50;1.00;;;;;;5098098;28;20441;-82
2022/05/01 02:06:13;;;;;;;0.60;0.30;;;10.60;1.00;;;;;;5094801;28;20446;-81
2022/05/01 02:08:42;;;;;;;0.60;0.10;;;10.60;1.00;;;;;;5095250;28;20461;-81
2022/05/01 02:11:12;;;;;;;0.60;0.20;;;10.60;1.00;;;;;;5095843;28;20450;-80
2022/05/01 02:13:39;;;;;;;0.70;0.40;;;10.60;1.00;;;;;;5096322;28;20440;-81
2022/05/01 02:16:08;;;;;;;3.27;2.93;;;10.50;1.00;;;;;;5095687;28;20450;-82
2022/05/01 02:18:36;;;;;;;0.77;0.43;;;10.60;1.00;;;;;;5085356;28;20469;-84
2022/05/01 02:23:49;;;;;;;0.60;0.10;;;10.50;1.00;;;;;;5086435;28;20504;-83
2022/05/01 02:26:19;;;;;;;0.60;0.20;;;10.50;1.00;;;;;;5092151;28;20465;-82
2022/05/01 02:28:47;;;;;;;0.60;0.20;;;10.50;1.00;;;;;;5084832;28;20993;-81
2022/05/01 02:31:16;;;;;;;0.60;0.10;;;10.50;1.00;;;;;;5088149;28;20486;-81
2022/05/01 02:33:44;;;;;;;0.60;0.10;;;10.50;1.00;;;;;;5094460;28;20540;-82
2022/05/01 02:36:12;;;;;;;0.70;0.57;;;10.50;1.00;;;;;;5094563;28;20548;-83
2022/05/01 02:38:40;;;;;;;0.60;0.10;;;10.50;1.00;;;;;;5096010;28;20461;-82
2022/05/01 02:41:08;;;;;;;0.60;0.10;;;10.40;1.00;;;;;;5095151;28;20528;-82
2022/05/01 02:43:38;;;;;;;0.60;0.10;;;10.40;1.00;;;;;;5095431;28;20425;-82
2022/05/01 02:46:05;;;;;;;0.60;0.20;;;10.40;1.00;;;;;;5096079;28;20448;-82
2022/05/01 02:48:33;;;;;;;0.60;0.10;;;10.40;1.00;;;;;;5095918;28;20441;-81
2022/05/01 02:51:04;;;;;;;0.60;0.10;;;10.40;1.00;;;;;;5087026;28;20474;-82
2022/05/01 02:53:32;;;;;;;0.60;0.10;;;10.40;1.00;;;;;;5082659;28;20528;-82
2022/05/01 02:56:01;;;;;;;0.60;0.10;;;10.40;1.00;;;;;;5079487;28;20459;-82
2022/05/01 02:58:29;;;;;;;0.60;0.20;;;10.40;1.00;;;;;;5078834;28;20466;-83
2022/05/01 03:00:59;;;;;;;1.10;0.40;;;10.40;1.00;;;;;;5081584;28;20452;-82
2022/05/01 03:03:28;;;;;;;1.37;1.13;;;10.40;1.00;;;;;;5089769;28;20429;-81
2022/05/01 03:05:58;;;;;;;0.83;0.40;;;10.40;1.00;;;;;;5097089;28;20453;-81
2022/05/01 03:08:27;;;;;;;2.00;1.80;;;10.40;1.00;;;;;;5093212;28;20543;-81
2022/05/01 03:10:54;;;;;;;0.60;0.20;;;10.40;1.00;;;;;;5084548;28;20624;-81
2022/05/01 03:13:22;;;;;;;0.90;0.40;;;10.40;1.00;;;;;;5079859;28;20445;-83
2022/05/01 03:15:50;;;;;;;0.60;0.20;;;;;;;;;;5079069;28;20449;-83
2022/05/01 03:23:51;;;;;;;0.60;0.10;;;10.40;1.00;;;;;;5031685;28;20793;-73
2022/05/01 03:26:19;;;;;;;1.73;1.63;;;10.40;1.00;;;;;;5048316;28;20434;-73
2022/05/01 03:28:47;;;;;;;0.60;0.10;;;10.40;1.00;;;;;;5054190;28;20935;-72
2022/05/01 03:31:16;;;;;;;1.37;1.27;;;10.30;1.00;;;;;;5051375;28;20459;-73
2022/05/01 03:33:45;;;;;;;0.60;0.10;;;10.30;1.00;;;;;;5051431;28;20462;-73
2022/05/01 03:36:14;;;;;;;0.60;0.23;;;10.30;1.00;;;;;;5051415;28;20831;-73
2022/05/01 03:38:43;;;;;;;1.23;1.13;;;10.30;1.00;;;;;;5050900;28;20494;-73
2022/05/01 03:41:14;;;;;;;0.60;0.10;;;10.30;1.00;;;;;;5051993;28;20442;-73
2022/05/01 03:43:43;;;;;;;0.60;0.17;;;10.30;1.00;;;;;;5051730;28;20459;-74
2022/05/01 03:46:11;;;;;;;0.70;0.30;;;10.30;1.00;;;;;;5058069;28;20450;-75
2022/05/01 03:48:39;;;;;;;0.70;0.20;;;10.20;1.00;;;;;;5051825;28;20927;-73
2022/05/01 03:51:08;;;;;;;0.60;0.10;;;10.30;1.00;;;;;;5057537;28;20801;-74
2022/05/01 03:53:36;;;;;;;0.60;0.10;;;10.30;1.00;;;;;;5051373;28;20886;-76
2022/05/01 03:56:04;;;;;;;0.60;0.10;;;10.30;1.00;;;;;;5050098;28;20956;-72
2022/05/01 03:58:33;;;;;;;0.60;0.10;;;10.30;1.00;;;;;;5050798;28;20992;-74
2022/05/01 04:01:01;;;;;;;3.13;2.83;;;10.30;1.00;;;;;;5044823;28;20445;-73
2022/05/01 04:03:29;;;;;;;0.60;0.10;;;10.30;1.00;;;;;;5052697;28;20873;-72
2022/05/01 04:05:58;;;;;;;0.60;0.10;;;;;;;;;;5051332;28;20443;-71
2022/05/01 04:08:27;;;;;;;0.60;0.20;;;10.20;1.00;;;;;;5050795;28;20840;-71
2022/05/01 04:10:55;;;;;;;3.60;3.40;;;10.20;1.00;;;;;;5050729;28;20824;-73
2022/05/01 04:13:23;;;;;;;0.60;0.30;;;;;;;;;;5050990;28;20525;-72
2022/05/01 04:15:51;;;;;;;0.60;0.10;;;10.20;1.00;;;;;;5050881;28;20477;-71
2022/05/01 04:18:19;;;;;;;0.60;0.10;;;10.20;1.00;;;;;;5049674;28;20489;-72
2022/05/01 04:20:47;;;;;;;0.60;0.10;;;10.20;1.00;;;;;;5050917;28;21030;-71
2022/05/01 04:23:15;;;;;;;0.60;0.10;;;10.30;1.00;;;;;;5047092;28;21014;-71
2022/05/01 04:25:45;;;;;;;0.83;0.77;;;10.20;1.00;;;;;;5046423;28;22014;-76
2022/05/01 04:28:13;;;;;;;0.60;0.10;;;10.30;1.00;;;;;;5053714;28;20477;-74
2022/05/01 04:30:41;;;;;;;0.80;0.40;;;10.30;1.00;;;;;;5053486;28;20824;-74
2022/05/01 04:33:10;;;;;;;0.60;0.10;;;10.20;1.00;;;;;;5052685;28;20461;-74
2022/05/01 04:35:40;;;;;;;1.47;0.57;;;10.20;1.00;;;;;;5052385;28;20442;-75
2022/05/01 04:38:11;;;;;;;0.87;0.87;;;10.20;1.00;;;;;;5048294;28;20466;-74
2022/05/01 04:40:41;;;;;;;0.60;0.10;;;10.30;1.00;;;;;;5031011;28;20522;-72
2022/05/01 04:43:12;;;;;;;0.70;0.30;;;10.30;1.00;;;;;;5041373;28;20454;-69
2022/05/01 04:45:42;;;;;;;0.77;0.40;;;10.30;1.00;;;;;;5050654;28;20501;-71
2022/05/01 04:48:12;;;;;;;0.60;0.10;;;10.30;1.00;;;;;;5050693;28;20469;-70
2022/05/01 04:50:41;;;;;;;3.13;2.10;;;10.30;1.00;;;;;;5050700;28;20438;-71
2022/05/01 04:53:11;;;;;;;0.60;0.20;;;10.30;1.00;;;;;;5051240;28;20454;-71
2022/05/01 04:55:42;;;;;;;0.60;0.10;;;10.30;1.00;;;;;;5050790;28;20956;-73
2022/05/01 04:58:14;;;;;;;0.67;0.27;;;10.30;1.00;;;;;;5052571;28;20466;-75
2022/05/01 05:00:43;;;;;;;0.60;0.10;;;10.30;1.00;;;;;;5052746;28;20450;-74
2022/05/01 05:03:12;;;;;;;1.30;1.10;;;10.30;1.00;;;;;;5054355;28;20454;-76
2022/05/01 05:05:40;;;;;;;0.60;0.10;;;10.40;1.00;;;;;;5047511;28;20453;-76
2022/05/01 05:10:54;;;;;;;0.60;0.10;;;;;;;;;;5058109;28;20513;-74
2022/05/01 05:13:27;;;;;;;0.60;0.10;;;10.40;1.00;;;;;;5057988;28;20450;-71
2022/05/01 05:15:58;;;;;;;0.70;0.53;;;10.40;1.00;;;;;;5057338;28;20788;-75
2022/05/01 05:18:27;;;;;;;0.60;0.13;;;;;;;;;;5055607;28;20516;-75
2022/05/01 05:20:55;;;;;;;0.60;0.13;;;;;;;;;;5036113;28;20454;-76
2022/05/01 05:23:23;;;;;;;0.70;0.40;;;10.50;1.00;;;;;;5046171;28;20482;-75
2022/05/01 05:25:51;;;;;;;0.80;0.73;;;10.50;1.00;;;;;;5055257;28;20454;-75
2022/05/01 05:28:19;;;;;;;1.33;0.60;;;10.50;1.00;;;;;;5055798;28;20467;-75
2022/05/01 05:30:49;;;;;;;0.60;0.30;;;10.50;1.00;;;;;;5056928;28;20442;-75
2022/05/01 05:33:18;;;;;;;0.60;0.20;;;10.50;1.00;;;;;;5055725;28;20944;-75
2022/05/01 05:35:46;;;;;;;0.60;0.10;;;10.50;1.00;;;;;;5055849;28;20567;-76
2022/05/01 05:38:14;;;;;;;0.60;0.30;;;10.60;1.00;;;;;;5057634;28;20472;-75
2022/05/01 05:40:42;;;;;;;0.60;0.20;;;10.50;1.00;;;;;;5055397;28;20861;-73
2022/05/01 05:43:10;;;;;;;0.90;0.57;;;10.60;1.00;;;;;;5054610;28;20493;-73
2022/05/01 05:45:38;;;;;;;0.60;0.10;;;10.60;1.00;;;;;;5053446;28;20955;-75
2022/05/01 05:48:07;;;;;;;0.60;0.10;;;10.70;1.00;;;;;;5056697;28;20868;-74
2022/05/01 05:50:35;;;;;;;0.93;0.43;;;10.60;1.00;;;;;;5061308;28;20450;-73
2022/05/01 05:53:03;;;;;;;0.60;0.10;;;10.60;1.00;;;;;;5056071;28;20454;-74
2022/05/01 05:55:33;;;;;;;0.60;0.10;;;10.70;1.00;;;;;;5036590;28;20443;-76
2022/05/01 05:58:02;;;;;;;0.60;0.30;;;10.70;1.00;;;;;;5044973;28;20488;-74
2022/05/01 06:00:30;;;;;;;0.60;0.13;;;10.70;1.00;;;;;;5066216;28;21025;-74
2022/05/01 06:02:58;;;;;;;1.10;0.87;;;10.70;1.00;;;;;;5069401;28;20494;-73
2022/05/01 06:05:28;;;;;;;0.70;0.50;;;10.70;1.00;;;;;;5070554;28;20442;-73
2022/05/01 06:07:56;;;;;;;0.70;0.33;;;11.00;1.00;;;;;;5068844;28;20488;-73
2022/05/01 06:10:23;;;;;;;0.70;0.50;;;10.80;1.00;;;;;;5056294;28;20882;-74
2022/05/01 06:12:51;;;;;;;0.60;0.10;;;10.90;1.00;;;;;;5055221;28;20936;-75
2022/05/01 06:15:20;;;;;;;1.17;0.77;;;;;;;;;;5055735;28;20457;-76
2022/05/01 06:17:49;;;;;;;0.60;0.30;;;11.10;1.00;;;;;;5053583;28;20532;-75
2022/05/01 06:20:18;;;;;;;0.60;0.20;;;11.10;1.00;;;;;;5068533;28;20560;-75
2022/05/01 06:22:50;;;;;;;0.60;0.20;;;11.10;1.00;;;;;;5075489;28;20459;-75
2022/05/01 06:25:18;;;;;;;0.70;0.30;;;11.10;1.00;;;;;;5062641;28;20479;-75
2022/05/01 06:27:46;;;;;;;2.30;1.87;;;11.10;1.00;;;;;;5056597;28;20466;-75
2022/05/01 06:30:14;;;;;;;2.20;0.67;;;11.20;1.00;;;;;;5057824;28;20457;-74
2022/05/01 06:32:43;;;;;;;0.67;0.33;;;11.20;1.00;;;;;;5054166;28;20445;-71
2022/05/01 06:35:12;;;;;;;1.17;1.07;;;11.20;1.00;;;;;;5052593;28;20473;-72
2022/05/01 06:37:40;;;;;;;0.73;0.60;;;11.30;1.00;;;;;;5052382;28;20466;-73
2022/05/01 06:40:09;;;;;;;0.60;0.10;;;11.30;1.00;;;;;;5053059;28;20548;-72
2022/05/01 06:42:38;;;;;;;0.73;0.60;;;11.30;1.00;;;;;;5053548;28;20450;-75
2022/05/01 06:45:06;;;;;;;1.10;0.77;;;11.30;1.00;;;;;;5055568;28;20442;-74
2022/05/01 06:47:34;;;;;;;0.80;0.70;;;11.40;1.00;;;;;;5054327;28;20480;-75
2022/05/01 06:50:02;;;;;;;0.60;0.27;;;11.40;1.00;;;;;;5055459;28;20435;-75
2022/05/01 06:52:30;;;;;;;0.70;0.60;;;11.40;1.00;;;;;;5055064;28;20521;-74
2022/05/01 06:55:00;;;;;;;1.10;1.00;;;11.50;1.00;;;;;;5052107;28;20442;-73
2022/05/01 06:57:29;;;;;;;4.53;2.97;;;11.50;1.00;;;;;;5051682;28;20485;-73
2022/05/01 06:59:57;;;;;;;2.87;2.57;;;11.50;1.00;;;;;;5051713;28;20556;-73
2022/05/01 07:02:28;;;;;;;0.60;0.20;;;11.60;1.00;;;;;;5052037;28;20457;-71
2022/05/01 07:04:56;;;;;;;0.60;0.10;;;11.60;1.00;;;;;;5051919;28;20524;-71
2022/05/01 07:07:24;;;;;;;0.60;0.10;;;;;;;;;;5051707;28;20474;-71
2022/05/01 07:09:52;;;;;;;0.60;0.20;;;11.80;1.00;;;;;;5052046;28;20504;-72
2022/05/01 07:12:20;;;;;;;7.07;1.30;;;11.90;1.00;;;;;;5051751;28;20442;-72
2022/05/01 07:14:49;;;;;;;0.70;0.37;;;11.90;1.00;;;;;;5051605;28;20449;-74
2022/05/01 07:17:17;;;;;;;2.20;2.00;;;12.00;1.00;;;;;;5051556;28;20470;-72
2022/05/01 07:19:45;;;;;;;1.70;1.60;;;12.10;1.00;;;;;;5063053;28;20477;-70
2022/05/01 07:22:14;;;;;;;0.60;0.30;;;12.20;1.00;;;;;;5070636;28;20533;-72
2022/05/01 07:24:42;;;;;;;1.40;1.30;;;12.20;1.00;;;;;;5054790;28;20444;-74
2022/05/01 07:27:15;;;;;;;0.60;0.13;;;12.30;1.00;;;;;;5051733;28;20549;-74
2022/05/01 07:29:43;;;;;;;0.60;0.10;;;;;;;;;;5069205;28;20446;-71
2022/05/01 07:32:13;;;;;;;2.30;1.60;;;12.40;1.00;;;;;;5067820;28;20446;-72
2022/05/01 07:34:41;;;;;;;1.07;0.67;;;12.60;1.00;;;;;;5052790;28;20990;-73
2022/05/01 07:37:09;;;;;;;0.80;0.37;;;12.70;1.00;;;;;;5032902;28;20468;-73
2022/05/01 07:39:37;;;;;;;0.60;0.10;;;12.80;1.00;;;;;;5047607;28;20977;-73
2022/05/01 07:42:05;;;;;;;0.90;0.40;;;12.80;1.00;;;;;;5049777;28;20806;-73
2022/05/01 07:44:33;;;;;;;2.10;2.00;;;12.90;1.00;;;;;;5051612;28;20443;-75
2022/05/01 07:47:01;;;;;;;0.60;0.10;;;12.90;1.00;;;;;;5051556;28;20478;-73
2022/05/01 07:49:30;;;;;;;0.60;0.40;;;12.90;1.00;;;;;;5061250;28;20476;-74
2022/05/01 07:51:58;;;;;;;1.17;0.27;;;;;;;;;;5051991;28;20917;-73
2022/05/01 07:54:26;;;;;;;0.60;0.33;;;12.80;1.00;;;;;;5065737;28;20451;-75
2022/05/01 07:56:55;;;;;;;0.90;0.83;;;;;;;;;;5068680;28;20473;-76
2022/05/01 07:59:23;;;;;;;0.60;0.20;;;12.80;1.00;;;;;;5053621;28;20444;-75
2022/05/01 08:01:50;;;;;;;0.60;0.20;;;13.00;1.00;;;;;;5053869;28;20482;-75
2022/05/01 08:04:29;;;;;;;0.70;0.37;;;13.00;1.00;;;;;;5053545;28;20458;-70
2022/05/01 08:07:00;;;;;;;0.60;0.10;;;13.10;1.00;;;;;;5051757;28;20485;-74
2022/05/01 08:09:30;;;;;;;0.80;0.40;;;13.10;1.00;;;;;;5051194;28;20451;-73
2022/05/01 08:11:58;;;;;;;0.70;0.47;;;13.20;1.00;;;;;;5049959;28;21120;-73
2022/05/01 08:14:26;;;;;;;0.83;0.60;;;13.10;1.00;;;;;;5046507;28;20463;-72
2022/05/01 08:16:54;;;;;;;1.77;1.40;;;13.10;1.00;;;;;;5050701;28;20462;-73
2022/05/01 08:22:10;;;;;;;0.60;0.20;;;13.20;1.00;;;;;;5070817;28;20486;-72
2022/05/01 08:24:38;;;;;;;2.87;0.47;;;13.20;1.00;;;;;;5054510;28;20465;-71
2022/05/01 08:27:06;;;;;;;2.50;2.30;;;13.30;1.00;;;;;;5050141;28;20551;-72
2022/05/01 08:29:36;;;;;;;0.70;0.37;;;13.30;1.00;;;;;;5055833;28;20454;-73
2022/05/01 08:32:06;;;;;;;0.60;0.37;;;13.40;1.00;;;;;;5071415;28;20467;-74
2022/05/01 08:34:34;;;;;;;0.60;0.10;;;13.40;1.00;;;;;;5051271;28;20547;-72
2022/05/01 08:37:02;;;;;;;2.30;1.07;;;13.50;1.00;;;;;;5050204;28;20464;-73
2022/05/01 08:39:32;;;;;;;0.60;0.20;;;13.60;1.00;;;;;;5050559;28;20981;-70
2022/05/01 08:42:02;;;;;;;0.60;0.30;;;13.60;1.00;;;;;;5056569;28;20476;-71
2022/05/01 08:44:34;;;;;;;0.60;0.10;;;13.60;1.00;;;;;;5057455;28;20917;-73
2022/05/01 08:47:16;;;;;;;2.27;2.17;;;13.60;1.00;;;;;;5057095;28;20516;-74
2022/05/01 08:49:45;;;;;;;1.03;0.67;;;13.80;1.00;;;;;;5057512;28;20448;-75
2022/05/01 08:52:15;;;;;;;0.60;0.40;;;13.80;1.00;;;;;;5057390;28;20447;-74
2022/05/01 08:54:46;;;;;;;1.10;0.60;;;13.80;1.00;;;;;;5057600;28;20698;-74
2022/05/01 08:57:14;;;;;;;0.60;0.10;;;14.00;1.00;;;;;;5057416;28;20822;-74
2022/05/01 08:59:46;;;;;;;0.60;0.10;;;14.10;1.00;;;;;;5058510;28;20480;-73
2022/05/01 09:02:15;;;;;;;0.60;0.20;;;14.20;1.00;;;;;;5057951;28;21058;-76
2022/05/01 09:04:44;;;;;;;2.20;0.87;;;14.30;1.00;;;;;;5058005;28;20483;-74
2022/05/01 09:07:12;;;;;;;3.73;2.70;;;14.30;1.00;;;;;;5057633;28;20477;-72
2022/05/01 09:09:40;;;;;;;0.60;0.10;;;14.40;1.00;;;;;;5057127;28;20956;-72
2022/05/01 09:14:57;;;;;;;0.60;0.10;;;14.80;1.00;;;;;;5056586;28;20813;-73
2022/05/01 09:17:24;;;;;;;0.93;0.50;;;15.00;99.90;;;;;;5056833;28;20476;-72
2022/05/01 09:20:04;;;;;;;0.60;0.20;;;15.10;99.90;;;;;;5057591;28;20560;-71
2022/05/01 09:22:48;;;;;;;0.60;0.20;;;15.10;99.90;;;;;;5057297;28;20480;-72
2022/05/01 09:25:16;;;;;;;0.60;0.10;;;;;;;;;;5057099;28;20447;-72
2022/05/01 09:27:46;;;;;;;0.60;0.10;;;15.30;99.90;;;;;;5056699;28;20507;-73
2022/05/01 09:30:16;;;;;;;0.60;0.13;;;15.30;99.90;;;;;;5057397;28;20450;-72
2022/05/01 09:32:44;;;;;;;0.60;0.23;;;15.30;99.90;;;;;;5057573;28;20538;-73
2022/05/01 09:35:15;;;;;;;1.63;0.90;;;15.40;99.90;;;;;;5056784;28;20484;-71
2022/05/01 09:37:44;;;;;;;0.80;0.57;;;15.70;99.90;;;;;;5056450;28;20467;-71
2022/05/01 09:40:13;;;;;;;0.60;0.27;;;15.70;99.90;;;;;;5057415;28;20450;-73
2022/05/01 09:42:41;;;;;;;0.60;0.10;;;15.80;99.90;;;;;;5056805;28;20482;-72
2022/05/01 09:45:13;;;;;;;0.60;0.20;;;15.80;99.90;;;;;;5054666;28;20923;-73
2022/05/01 09:47:42;;;;;;;0.60;0.10;;;15.80;99.90;;;;;;5057166;28;20471;-73
2022/05/01 09:50:12;;;;;;;0.60;0.10;;;15.90;99.90;;;;;;5057611;28;20450;-73
2022/05/01 09:53:00;;;;;;;0.60;0.10;;;16.00;99.90;;;;;;5055143;28;20443;-73
2022/05/01 09:55:29;;;;;;;0.60;0.10;;;16.00;99.90;;;;;;5053479;28;20999;-73
2022/05/01 09:58:09;;;;;;;0.60;0.10;;;16.10;99.90;;;;;;5053438;28;20483;-72
2022/05/01 10:00:41;;;;;;;0.60;0.10;;;16.20;99.90;;;;;;5054625;28;20925;-74
2022/05/01 10:03:28;;;;;;;0.60;0.10;;;16.20;99.90;;;;;;5053048;28;20485;-72
2022/05/01 10:05:58;;;;;;;0.60;0.10;;;16.30;99.90;;;;;;5051849;28;20511;-72
2022/05/01 10:08:26;;;;;;;0.70;0.30;;;;;;;;;;5047663;28;20484;-73
2022/05/01 10:10:57;;;;;;;0.60;0.10;;;16.40;99.90;;;;;;5052756;28;20453;-73
2022/05/01 10:13:26;;;;;;;0.60;0.10;;;;;;;;;;5052950;28;20442;-75
2022/05/01 10:16:08;;;;;;;0.60;0.10;;;16.40;99.90;;;;;;5057518;28;20455;-72
2022/05/01 10:18:37;;;;;;;0.60;0.10;;;16.50;99.90;;;;;;5052297;28;20530;-72
2022/05/01 10:21:27;;;;;;;0.60;0.10;;;16.70;99.90;;;;;;5050703;28;20481;-71
2022/05/01 10:23:57;;;;;;;0.70;0.40;;;17.10;99.90;;;;;;5053142;28;20443;-72
2022/05/01 10:26:30;;;;;;;0.60;0.17;;;17.10;99.90;;;;;;5051737;28;20514;-73
2022/05/01 10:29:35;;;;;;;0.60;0.10;;;17.10;99.90;;;;;;5052333;28;20462;-73
2022/05/01 10:32:28;;;;;;;0.60;0.20;;;17.30;99.90;;;;;;5051967;28;20529;-72
2022/05/01 10:35:41;;;;;;;0.60;0.10;;;17.30;99.90;;;;;;5053137;28;20438;-72
2022/05/01 10:38:17;;;;;;;0.70;0.50;;;17.40;99.90;;;;;;5052008;28;20467;-71
2022/05/01 10:40:49;;;;;;;0.60;0.20;;;17.40;99.90;;;;;;5052432;28;20512;-72
2022/05/01 10:43:25;;;;;;;0.70;0.63;;;17.20;99.90;;;;;;5054670;28;20565;-73
2022/05/01 10:45:54;;;;;;;0.60;0.20;;;17.20;99.90;;;;;;5056382;28;20450;-73
2022/05/01 10:48:41;;;;;;;0.60;0.10;;;17.20;99.90;;;;;;5054688;28;20462;-74
2022/05/01 10:51:44;;;;;;;0.60;0.20;;;17.20;99.90;;;;;;5053113;28;20541;-72
2022/05/01 10:54:38;;;;;;;1.50;1.40;;;17.30;99.90;;;;;;5053110;28;20465;-73
2022/05/01 10:57:11;;;;;;;9.90;9.30;;;17.20;99.90;;;;;;5032576;28;20992;-71
2022/05/01 10:59:43;;;;;;;2.10;0.80;;;17.20;99.90;;;;;;5040564;28;20453;-74
2022/05/01 11:02:29;;;;;;;0.60;0.20;;;17.10;99.90;;;;;;5052786;28;20488;-73
2022/05/01 11:05:00;;;;;;;0.80;0.57;;;17.00;99.90;;;;;;5051881;28;20454;-72
2022/05/01 11:07:29;;;;;;;0.60;0.20;;;17.00;99.90;;;;;;5051966;28;20511;-74
2022/05/01 11:10:00;;;;;;;0.60;0.10;;;17.10;99.90;;;;;;5064802;23;20513;-81
2022/05/01 11:12:31;;;;;;;0.60;0.20;;;17.30;99.90;;;;;;5050173;28;20441;-84
2022/05/01 11:15:04;;;;;;;0.60;0.10;;;17.50;99.90;;;;;;5030877;28;20509;-82
2022/05/01 11:17:54;;;;;;;4.87;0.77;;;17.50;99.90;;;;;;5038129;28;20490;-83
2022/05/01 11:20:31;;;;;;;0.90;0.37;;;17.70;99.90;;;;;;5038085;28;20473;-81
2022/05/01 11:23:14;;;;;;;0.60;0.20;;;17.70;99.90;;;;;;5040858;28;20487;-81
2022/05/01 11:25:48;;;;;;;0.70;0.43;;;17.80;99.90;;;;;;5039968;28;20455;-81
2022/05/01 11:28:49;;;;;;;0.60;0.30;;;18.00;99.90;;;;;;5030360;28;20436;-80
2022/05/01 11:31:49;;;;;;;0.60;0.10;;;18.20;99.90;;;;;;5036817;28;21028;-81
2022/05/01 11:34:34;;;;;;;1.03;0.87;;;18.50;99.90;;;;;;5038722;28;20506;-83
2022/05/01 11:37:06;;;;;;;0.60;0.20;;;18.40;99.90;;;;;;5038375;28;20483;-83
2022/05/01 11:40:20;;;;;;;0.60;0.20;;;18.60;99.90;;;;;;5039579;28;20449;-82
2022/05/01 11:42:48;;;;;;;12.67;11.87;;;18.70;99.90;;;;;;5050114;28;20474;-83
2022/05/01 11:45:18;;;;;;;1.53;1.17;;;18.70;99.90;;;;;;5046455;28;20520;-82
2022/05/01 11:47:51;;;;;;;0.60;0.20;;;18.70;99.90;;;;;;5043624;28;20462;-83
2022/05/01 11:50:37;;;;;;;0.77;0.50;;;;;;;;;;5049734;23;20502;-82
2022/05/01 11:53:09;;;;;;;0.90;0.33;;;;;;;;;;5016403;28;20476;-84
2022/05/01 12:04:28;;;;;;;0.60;0.20;;;18.50;99.90;;;;;;5023481;28;20549;-80
2022/05/01 12:07:01;;;;;;;0.60;0.10;;;18.50;99.90;;;;;;5029805;28;20455;-82
2022/05/01 12:09:33;;;;;;;0.70;0.43;;;18.60;99.90;;;;;;5027333;28;20471;-82
2022/05/01 12:12:01;;;;;;;0.60;0.30;;;18.60;99.90;;;;;;5017762;28;20551;-82
2022/05/01 12:14:29;;;;;;;0.67;0.50;;;18.50;99.90;;;;;;5033849;28;20446;-82
2022/05/01 12:16:58;;;;;;;0.83;0.53;;;18.30;99.90;;;;;;5033378;28;20503;-80
2022/05/01 12:19:37;;;;;;;0.60;0.10;;;18.30;99.90;;;;;;5027787;28;20862;-84
2022/05/01 12:22:07;;;;;;;0.63;0.20;;;18.20;99.90;;;;;;5023905;28;20467;-82
2022/05/01 12:24:39;;;;;;;4.73;4.33;;;;;;;;;;5021264;28;20470;-84
2022/05/01 12:27:08;;;;;;;0.80;0.73;;;18.20;99.90;;;;;;5021286;28;20752;-83
2022/05/01 12:29:39;;;;;;;0.60;0.20;;;18.50;99.90;;;;;;5021975;28;20576;-82
2022/05/01 12:32:08;;;;;;;0.60;0.10;;;18.50;99.90;;;;;;5022080;28;20427;-86
2022/05/01 12:34:39;;;;;;;0.60;0.10;;;18.80;99.90;;;;;;5029603;28;20452;-82
2022/05/01 12:37:12;;;;;;;0.60;0.10;;;18.90;99.90;;;;;;5029362;28;20424;-83
2022/05/01 12:39:43;;;;;;;1.00;0.83;;;19.20;99.90;;;;;;5018806;28;20475;-83
2022/05/01 12:45:09;;;;;;;0.60;0.10;;;19.10;99.90;;;;;;5027514;28;20448;-81
2022/05/01 12:47:39;;;;;;;0.60;0.20;;;19.00;99.90;;;;;;5021041;28;20475;-80
2022/05/01 12:50:10;;;;;;;0.80;0.40;;;18.80;99.90;;;;;;5017178;28;20557;-80
2022/05/01 12:52:40;;;;;;;0.60;0.10;;;18.70;99.90;;;;;;5017644;28;20451;-79
2022/05/01 12:55:16;;;;;;;0.60;0.10;;;18.80;99.90;;;;;;5017760;28;20538;-82
2022/05/01 12:57:51;;;;;;;0.60;0.10;;;18.70;99.90;;;;;;5017827;28;20801;-81
2022/05/01 13:00:37;;;;;;;0.83;0.53;;;18.90;99.90;;;;;;5019265;28;20861;-80
2022/05/01 13:03:20;;;;;;;0.60;0.10;;;19.20;99.90;;;;;;5019724;28;20626;-80
2022/05/01 13:05:58;;;;;;;0.70;0.40;;;19.20;99.90;;;;;;5021576;28;20444;-81
2022/05/01 13:08:27;;;;;;;0.60;0.10;;;19.60;99.90;;;;;;5019162;28;20450;-80
2022/05/01 13:11:17;;;;;;;0.60;0.20;;;19.30;99.90;;;;;;5043296;28;20539;-81
2022/05/01 13:13:53;;;;;;;0.60;0.10;;;19.30;99.90;;;;;;5028133;28;20455;-79
2022/05/01 13:16:24;;;;;;;0.60;0.10;;;19.30;99.90;;;;;;5029678;28;20538;-81
2022/05/01 13:18:54;;;;;;;1.90;0.83;;;19.40;99.90;;;;;;5031911;28;20462;-81
2022/05/01 13:21:25;;;;;;;1.27;1.17;;;19.30;99.90;;;;;;5024868;28;20566;-83
2022/05/01 13:23:56;;;;;;;1.83;1.00;;;19.20;99.90;;;;;;5021823;28;20972;-79
2022/05/01 13:26:25;;;;;;;0.60;0.10;;;18.90;99.90;;;;;;5019423;28;20451;-81
2022/05/01 13:28:53;;;;;;;0.60;0.27;;;18.80;99.90;;;;;;5027904;28;20522;-78
2022/05/01 13:31:21;;;;;;;0.60;0.23;;;18.80;99.90;;;;;;5026403;28;20608;-82
2022/05/01 13:33:49;;;;;;;1.70;1.60;;;18.80;99.90;;;;;;5023048;28;20450;-82
2022/05/01 13:36:17;;;;;;;1.00;0.70;;;18.90;99.90;;;;;;5021885;28;20447;-80
2022/05/01 13:38:45;;;;;;;0.70;0.40;;;18.90;99.90;;;;;;5025834;28;20527;-80
2022/05/01 13:46:45;;;;;;;2.37;2.27;;;19.00;99.90;;;;;;5019837;28;20445;-83
2022/05/01 13:49:13;;;;;;;0.60;0.10;;;19.20;99.90;;;;;;5021318;28;20462;-81
2022/05/01 13:51:41;;;;;;;0.60;0.10;;;19.30;99.90;;;;;;5019872;28;20822;-82
2022/05/01 13:54:09;;;;;;;0.60;0.10;;;19.30;99.90;;;;;;5020667;28;20442;-80
2022/05/01 13:56:38;;;;;;;0.60;0.10;;;19.40;99.90;;;;;;5020525;28;20446;-81